sensor_id;sensor_type;location;lat;lon;timestamp;P1;durP1;ratioP1;P2;durP2;ratioP2
15841;SDS011;8021;48.022;11.812;2023-05-10T00:00:00;0.20;;;0.20;;
15841;SDS011;8021;48.022;11.812;2023-05-10T00:02:38;0.28;;;0.20;;
15841;SDS011;8021;48.022;11.812;2023-05-10T00:05:08;0.20;;;0.20;;
15841;SDS011;8021;48.022;11.812;2023-05-10T00:07:35;0.30;;;0.20;;
15841;SDS011;8021;48.022;11.812;2023-05-10T00:10:03;0.30;;;0.30;;
15841;SDS011;8021;48.022;11.812;2023-05-10T00:12:30;0.30;;;0.25;;
15841;SDS011;8021;48.022;11.812;2023-05-10T00:14:58;0.30;;;0.30;;
15841;SDS011;8021;48.022;11.812;2023-05-10T00:17:26;0.30;;;0.20;;
15841;SDS011;8021;48.022;11.812;2023-05-10T00:19:54;0.30;;;0.20;;
15841;SDS011;8021;48.022;11.812;2023-05-10T00:22:23;0.20;;;0.20;;
15841;SDS011;8021;48.022;11.812;2023-05-10T00:24:50;0.30;;;0.20;;
15841;SDS011;8021;48.022;11.812;2023-05-10T00:27:18;0.25;;;0.20;;
15841;SDS011;8021;48.022;11.812;2023-05-10T00:29:45;0.20;;;0.20;;
15841;SDS011;8021;48.022;11.812;2023-05-10T00:32:13;0.30;;;0.30;;
15841;SDS011;8021;48.022;11.812;2023-05-10T00:34:42;0.28;;;0.20;;
15841;SDS011;8021;48.022;11.812;2023-05-10T00:37:10;0.30;;;0.20;;
15841;SDS011;8021;48.022;11.812;2023-05-10T00:39:39;0.30;;;0.22;;
15841;SDS011;8021;48.022;11.812;2023-05-10T00:42:07;0.20;;;0.20;;
15841;SDS011;8021;48.022;11.812;2023-05-10T00:44:34;0.30;;;0.22;;
15841;SDS011;8021;48.022;11.812;2023-05-10T00:47:02;0.30;;;0.30;;
15841;SDS011;8021;48.022;11.812;2023-05-10T00:49:29;0.30;;;0.20;;
15841;SDS011;8021;48.022;11.812;2023-05-10T00:51:57;0.30;;;0.22;;
15841;SDS011;8021;48.022;11.812;2023-05-10T00:54:25;0.20;;;0.20;;
15841;SDS011;8021;48.022;11.812;2023-05-10T00:56:54;0.22;;;0.20;;
15841;SDS011;8021;48.022;11.812;2023-05-10T00:59:23;0.30;;;0.22;;
15841;SDS011;8021;48.022;11.812;2023-05-10T01:01:51;0.28;;;0.20;;
15841;SDS011;8021;48.022;11.812;2023-05-10T01:04:19;0.20;;;0.20;;
15841;SDS011;8021;48.022;11.812;2023-05-10T01:06:51;0.20;;;0.20;;
15841;SDS011;8021;48.022;11.812;2023-05-10T01:09:19;0.30;;;0.20;;
15841;SDS011;8021;48.022;11.812;2023-05-10T01:11:47;0.30;;;0.20;;
15841;SDS011;8021;48.022;11.812;2023-05-10T01:14:16;0.30;;;0.30;;
15841;SDS011;8021;48.022;11.812;2023-05-10T01:16:45;0.30;;;0.20;;
15841;SDS011;8021;48.022;11.812;2023-05-10T01:19:17;0.30;;;0.30;;
15841;SDS011;8021;48.022;11.812;2023-05-10T01:21:48;0.30;;;0.28;;
15841;SDS011;8021;48.022;11.812;2023-05-10T01:27:16;0.30;;;0.30;;
15841;SDS011;8021;48.022;11.812;2023-05-10T01:29:50;0.30;;;0.20;;
15841;SDS011;8021;48.022;11.812;2023-05-10T01:32:42;0.20;;;0.20;;
15841;SDS011;8021;48.022;11.812;2023-05-10T01:35:13;0.20;;;0.20;;
15841;SDS011;8021;48.022;11.812;2023-05-10T01:37:42;0.28;;;0.20;;
15841;SDS011;8021;48.022;11.812;2023-05-10T01:40:14;0.30;;;0.20;;
15841;SDS011;8021;48.022;11.812;2023-05-10T01:42:46;0.30;;;0.30;;
15841;SDS011;8021;48.022;11.812;2023-05-10T01:45:17;0.30;;;0.30;;
15841;SDS011;8021;48.022;11.812;2023-05-10T01:47:48;0.30;;;0.20;;
15841;SDS011;8021;48.022;11.812;2023-05-10T01:50:18;0.30;;;0.28;;
15841;SDS011;8021;48.022;11.812;2023-05-10T01:52:47;0.25;;;0.20;;
15841;SDS011;8021;48.022;11.812;2023-05-10T01:55:18;0.30;;;0.20;;
15841;SDS011;8021;48.022;11.812;2023-05-10T01:57:46;0.30;;;0.30;;
15841;SDS011;8021;48.022;11.812;2023-05-10T02:00:15;0.30;;;0.30;;
15841;SDS011;8021;48.022;11.812;2023-05-10T02:02:44;0.30;;;0.30;;
15841;SDS011;8021;48.022;11.812;2023-05-10T02:05:14;0.30;;;0.30;;
15841;SDS011;8021;48.022;11.812;2023-05-10T02:07:42;0.30;;;0.30;;
15841;SDS011;8021;48.022;11.812;2023-05-10T02:10:10;0.30;;;0.20;;
15841;SDS011;8021;48.022;11.812;2023-05-10T02:12:39;0.20;;;0.20;;
15841;SDS011;8021;48.022;11.812;2023-05-10T02:15:08;0.30;;;0.30;;
15841;SDS011;8021;48.022;11.812;2023-05-10T02:17:36;0.30;;;0.20;;
15841;SDS011;8021;48.022;11.812;2023-05-10T02:20:05;0.20;;;0.20;;
15841;SDS011;8021;48.022;11.812;2023-05-10T02:22:35;0.30;;;0.30;;
15841;SDS011;8021;48.022;11.812;2023-05-10T02:25:03;0.20;;;0.20;;
15841;SDS011;8021;48.022;11.812;2023-05-10T02:27:31;0.30;;;0.30;;
15841;SDS011;8021;48.022;11.812;2023-05-10T02:29:58;0.30;;;0.30;;
15841;SDS011;8021;48.022;11.812;2023-05-10T02:32:27;0.30;;;0.20;;
15841;SDS011;8021;48.022;11.812;2023-05-10T02:34:55;0.30;;;0.20;;
15841;SDS011;8021;48.022;11.812;2023-05-10T02:37:23;0.30;;;0.20;;
15841;SDS011;8021;48.022;11.812;2023-05-10T02:39:53;0.30;;;0.20;;
15841;SDS011;8021;48.022;11.812;2023-05-10T02:42:23;0.30;;;0.20;;
15841;SDS011;8021;48.022;11.812;2023-05-10T02:44:52;0.30;;;0.30;;
15841;SDS011;8021;48.022;11.812;2023-05-10T02:47:20;0.30;;;0.25;;
15841;SDS011;8021;48.022;11.812;2023-05-10T02:49:47;0.30;;;0.30;;
15841;SDS011;8021;48.022;11.812;2023-05-10T02:52:16;0.30;;;0.30;;
15841;SDS011;8021;48.022;11.812;2023-05-10T02:54:44;0.30;;;0.28;;
15841;SDS011;8021;48.022;11.812;2023-05-10T02:57:14;0.20;;;0.20;;
15841;SDS011;8021;48.022;11.812;2023-05-10T02:59:44;0.30;;;0.30;;
15841;SDS011;8021;48.022;11.812;2023-05-10T03:02:12;0.30;;;0.25;;
15841;SDS011;8021;48.022;11.812;2023-05-10T03:04:40;0.30;;;0.30;;
15841;SDS011;8021;48.022;11.812;2023-05-10T03:07:07;0.30;;;0.30;;
15841;SDS011;8021;48.022;11.812;2023-05-10T03:09:35;0.30;;;0.30;;
15841;SDS011;8021;48.022;11.812;2023-05-10T03:12:04;0.30;;;0.20;;
15841;SDS011;8021;48.022;11.812;2023-05-10T03:14:45;0.30;;;0.30;;
15841;SDS011;8021;48.022;11.812;2023-05-10T03:17:18;0.30;;;0.25;;
15841;SDS011;8021;48.022;11.812;2023-05-10T03:19:51;0.30;;;0.30;;
15841;SDS011;8021;48.022;11.812;2023-05-10T03:22:20;0.30;;;0.30;;
15841;SDS011;8021;48.022;11.812;2023-05-10T03:24:49;0.30;;;0.30;;
15841;SDS011;8021;48.022;11.812;2023-05-10T03:27:18;0.30;;;0.30;;
15841;SDS011;8021;48.022;11.812;2023-05-10T03:29:49;0.32;;;0.32;;
15841;SDS011;8021;48.022;11.812;2023-05-10T03:32:17;0.30;;;0.30;;
15841;SDS011;8021;48.022;11.812;2023-05-10T03:34:45;0.30;;;0.25;;
15841;SDS011;8021;48.022;11.812;2023-05-10T03:37:13;0.30;;;0.30;;
15841;SDS011;8021;48.022;11.812;2023-05-10T03:39:41;0.30;;;0.30;;
15841;SDS011;8021;48.022;11.812;2023-05-10T03:42:09;0.30;;;0.30;;
15841;SDS011;8021;48.022;11.812;2023-05-10T03:44:38;0.30;;;0.30;;
15841;SDS011;8021;48.022;11.812;2023-05-10T03:47:07;0.30;;;0.22;;
15841;SDS011;8021;48.022;11.812;2023-05-10T03:49:34;0.30;;;0.30;;
15841;SDS011;8021;48.022;11.812;2023-05-10T03:52:02;0.30;;;0.30;;
15841;SDS011;8021;48.022;11.812;2023-05-10T03:54:31;0.30;;;0.20;;
15841;SDS011;8021;48.022;11.812;2023-05-10T03:56:59;0.30;;;0.20;;
15841;SDS011;8021;48.022;11.812;2023-05-10T03:59:28;0.20;;;0.20;;
15841;SDS011;8021;48.022;11.812;2023-05-10T04:01:56;0.30;;;0.30;;
15841;SDS011;8021;48.022;11.812;2023-05-10T04:04:25;0.30;;;0.30;;
15841;SDS011;8021;48.022;11.812;2023-05-10T04:06:53;0.20;;;0.20;;
15841;SDS011;8021;48.022;11.812;2023-05-10T04:09:21;0.30;;;0.20;;
15841;SDS011;8021;48.022;11.812;2023-05-10T04:11:48;0.30;;;0.30;;
15841;SDS011;8021;48.022;11.812;2023-05-10T04:14:16;0.25;;;0.20;;
15841;SDS011;8021;48.022;11.812;2023-05-10T04:16:43;0.30;;;0.28;;
15841;SDS011;8021;48.022;11.812;2023-05-10T04:19:11;0.20;;;0.20;;
15841;SDS011;8021;48.022;11.812;2023-05-10T04:21:40;0.30;;;0.30;;
15841;SDS011;8021;48.022;11.812;2023-05-10T04:24:07;0.30;;;0.20;;
15841;SDS011;8021;48.022;11.812;2023-05-10T04:26:35;0.20;;;0.20;;
15841;SDS011;8021;48.022;11.812;2023-05-10T04:29:02;0.30;;;0.30;;
15841;SDS011;8021;48.022;11.812;2023-05-10T04:31:30;0.20;;;0.20;;
15841;SDS011;8021;48.022;11.812;2023-05-10T04:33:57;0.40;;;0.40;;
15841;SDS011;8021;48.022;11.812;2023-05-10T04:36:25;0.22;;;0.20;;
15841;SDS011;8021;48.022;11.812;2023-05-10T04:38:53;0.30;;;0.20;;
15841;SDS011;8021;48.022;11.812;2023-05-10T04:41:21;0.30;;;0.30;;
15841;SDS011;8021;48.022;11.812;2023-05-10T04:43:48;0.30;;;0.20;;
15841;SDS011;8021;48.022;11.812;2023-05-10T04:46:16;0.20;;;0.20;;
15841;SDS011;8021;48.022;11.812;2023-05-10T04:48:43;0.20;;;0.20;;
15841;SDS011;8021;48.022;11.812;2023-05-10T04:51:11;0.20;;;0.20;;
15841;SDS011;8021;48.022;11.812;2023-05-10T04:53:38;0.30;;;0.20;;
15841;SDS011;8021;48.022;11.812;2023-05-10T04:56:09;0.30;;;0.30;;
15841;SDS011;8021;48.022;11.812;2023-05-10T04:58:37;0.30;;;0.30;;
15841;SDS011;8021;48.022;11.812;2023-05-10T05:01:05;0.30;;;0.30;;
15841;SDS011;8021;48.022;11.812;2023-05-10T05:03:33;0.30;;;0.28;;
15841;SDS011;8021;48.022;11.812;2023-05-10T05:06:00;0.30;;;0.20;;
15841;SDS011;8021;48.022;11.812;2023-05-10T05:08:28;0.30;;;0.20;;
15841;SDS011;8021;48.022;11.812;2023-05-10T05:10:55;0.30;;;0.20;;
15841;SDS011;8021;48.022;11.812;2023-05-10T05:13:24;0.30;;;0.30;;
15841;SDS011;8021;48.022;11.812;2023-05-10T05:15:52;0.30;;;0.20;;
15841;SDS011;8021;48.022;11.812;2023-05-10T05:18:19;0.30;;;0.20;;
15841;SDS011;8021;48.022;11.812;2023-05-10T05:20:47;0.22;;;0.20;;
15841;SDS011;8021;48.022;11.812;2023-05-10T05:23:14;0.20;;;0.20;;
15841;SDS011;8021;48.022;11.812;2023-05-10T05:25:42;0.20;;;0.20;;
15841;SDS011;8021;48.022;11.812;2023-05-10T05:28:10;0.30;;;0.20;;
15841;SDS011;8021;48.022;11.812;2023-05-10T05:30:41;0.30;;;0.20;;
15841;SDS011;8021;48.022;11.812;2023-05-10T05:33:11;0.30;;;0.30;;
15841;SDS011;8021;48.022;11.812;2023-05-10T05:35:38;0.30;;;0.20;;
15841;SDS011;8021;48.022;11.812;2023-05-10T05:38:06;0.20;;;0.20;;
15841;SDS011;8021;48.022;11.812;2023-05-10T05:40:33;0.30;;;0.30;;
15841;SDS011;8021;48.022;11.812;2023-05-10T05:43:01;0.30;;;0.30;;
15841;SDS011;8021;48.022;11.812;2023-05-10T05:45:28;0.30;;;0.22;;
15841;SDS011;8021;48.022;11.812;2023-05-10T05:47:57;0.20;;;0.20;;
15841;SDS011;8021;48.022;11.812;2023-05-10T05:50:25;0.20;;;0.20;;
15841;SDS011;8021;48.022;11.812;2023-05-10T05:52:52;0.30;;;0.30;;
15841;SDS011;8021;48.022;11.812;2023-05-10T05:55:20;0.20;;;0.20;;
15841;SDS011;8021;48.022;11.812;2023-05-10T05:57:47;0.20;;;0.20;;
15841;SDS011;8021;48.022;11.812;2023-05-10T06:00:15;0.30;;;0.25;;
15841;SDS011;8021;48.022;11.812;2023-05-10T06:02:44;0.30;;;0.20;;
15841;SDS011;8021;48.022;11.812;2023-05-10T06:05:13;0.30;;;0.30;;
15841;SDS011;8021;48.022;11.812;2023-05-10T06:07:41;0.28;;;0.20;;
15841;SDS011;8021;48.022;11.812;2023-05-10T06:10:09;0.30;;;0.30;;
15841;SDS011;8021;48.022;11.812;2023-05-10T06:12:36;0.30;;;0.20;;
15841;SDS011;8021;48.022;11.812;2023-05-10T06:15:04;0.30;;;0.25;;
15841;SDS011;8021;48.022;11.812;2023-05-10T06:17:32;0.30;;;0.20;;
15841;SDS011;8021;48.022;11.812;2023-05-10T06:19:59;0.20;;;0.20;;
15841;SDS011;8021;48.022;11.812;2023-05-10T06:22:28;0.20;;;0.20;;
15841;SDS011;8021;48.022;11.812;2023-05-10T06:24:55;0.20;;;0.20;;
15841;SDS011;8021;48.022;11.812;2023-05-10T06:27:23;0.20;;;0.20;;
15841;SDS011;8021;48.022;11.812;2023-05-10T06:29:50;0.25;;;0.20;;
15841;SDS011;8021;48.022;11.812;2023-05-10T06:32:34;0.20;;;0.20;;
15841;SDS011;8021;48.022;11.812;2023-05-10T06:35:02;0.30;;;0.28;;
15841;SDS011;8021;48.022;11.812;2023-05-10T06:37:31;0.20;;;0.20;;
15841;SDS011;8021;48.022;11.812;2023-05-10T06:39:58;0.30;;;0.20;;
15841;SDS011;8021;48.022;11.812;2023-05-10T06:42:26;0.30;;;0.30;;
15841;SDS011;8021;48.022;11.812;2023-05-10T06:44:54;0.30;;;0.20;;
15841;SDS011;8021;48.022;11.812;2023-05-10T06:47:21;0.20;;;0.20;;
15841;SDS011;8021;48.022;11.812;2023-05-10T06:49:49;0.30;;;0.20;;
15841;SDS011;8021;48.022;11.812;2023-05-10T06:52:16;0.20;;;0.20;;
15841;SDS011;8021;48.022;11.812;2023-05-10T06:54:45;0.30;;;0.30;;
15841;SDS011;8021;48.022;11.812;2023-05-10T06:57:12;0.20;;;0.20;;
15841;SDS011;8021;48.022;11.812;2023-05-10T06:59:55;0.20;;;0.20;;
15841;SDS011;8021;48.022;11.812;2023-05-10T07:02:23;0.20;;;0.20;;
15841;SDS011;8021;48.022;11.812;2023-05-10T07:04:50;0.30;;;0.30;;
15841;SDS011;8021;48.022;11.812;2023-05-10T07:07:18;0.30;;;0.20;;
15841;SDS011;8021;48.022;11.812;2023-05-10T07:09:47;0.20;;;0.20;;
15841;SDS011;8021;48.022;11.812;2023-05-10T07:12:15;0.20;;;0.20;;
15841;SDS011;8021;48.022;11.812;2023-05-10T07:14:43;0.20;;;0.20;;
15841;SDS011;8021;48.022;11.812;2023-05-10T07:17:11;0.20;;;0.20;;
15841;SDS011;8021;48.022;11.812;2023-05-10T07:19:38;0.20;;;0.20;;
15841;SDS011;8021;48.022;11.812;2023-05-10T07:22:06;0.20;;;0.20;;
15841;SDS011;8021;48.022;11.812;2023-05-10T07:24:33;0.20;;;0.20;;
15841;SDS011;8021;48.022;11.812;2023-05-10T07:27:02;0.20;;;0.20;;
15841;SDS011;8021;48.022;11.812;2023-05-10T07:29:30;0.20;;;0.20;;
15841;SDS011;8021;48.022;11.812;2023-05-10T07:31:57;0.20;;;0.20;;
15841;SDS011;8021;48.022;11.812;2023-05-10T07:34:25;0.20;;;0.20;;
15841;SDS011;8021;48.022;11.812;2023-05-10T07:36:53;0.20;;;0.20;;
15841;SDS011;8021;48.022;11.812;2023-05-10T07:39:21;0.20;;;0.20;;
15841;SDS011;8021;48.022;11.812;2023-05-10T07:41:53;0.20;;;0.10;;
15841;SDS011;8021;48.022;11.812;2023-05-10T07:44:22;0.10;;;0.10;;
15841;SDS011;8021;48.022;11.812;2023-05-10T07:46:49;0.15;;;0.15;;
15841;SDS011;8021;48.022;11.812;2023-05-10T07:49:17;0.10;;;0.10;;
15841;SDS011;8021;48.022;11.812;2023-05-10T07:51:44;0.20;;;0.20;;
15841;SDS011;8021;48.022;11.812;2023-05-10T07:54:12;0.10;;;0.10;;
15841;SDS011;8021;48.022;11.812;2023-05-10T07:56:39;0.20;;;0.20;;
15841;SDS011;8021;48.022;11.812;2023-05-10T07:59:14;0.10;;;0.10;;
15841;SDS011;8021;48.022;11.812;2023-05-10T08:01:43;0.10;;;0.10;;
15841;SDS011;8021;48.022;11.812;2023-05-10T08:04:10;0.20;;;0.20;;
15841;SDS011;8021;48.022;11.812;2023-05-10T08:06:38;0.20;;;0.20;;
15841;SDS011;8021;48.022;11.812;2023-05-10T08:09:06;0.10;;;0.10;;
15841;SDS011;8021;48.022;11.812;2023-05-10T08:11:34;0.10;;;0.10;;
15841;SDS011;8021;48.022;11.812;2023-05-10T08:14:02;0.20;;;0.20;;
15841;SDS011;8021;48.022;11.812;2023-05-10T08:16:29;0.20;;;0.20;;
15841;SDS011;8021;48.022;11.812;2023-05-10T08:18:58;0.10;;;0.10;;
15841;SDS011;8021;48.022;11.812;2023-05-10T08:21:25;0.10;;;0.10;;
15841;SDS011;8021;48.022;11.812;2023-05-10T08:23:53;0.10;;;0.10;;
15841;SDS011;8021;48.022;11.812;2023-05-10T08:26:20;0.10;;;0.10;;
15841;SDS011;8021;48.022;11.812;2023-05-10T08:28:48;0.10;;;0.10;;
15841;SDS011;8021;48.022;11.812;2023-05-10T08:31:16;0.10;;;0.10;;
15841;SDS011;8021;48.022;11.812;2023-05-10T08:33:45;0.10;;;0.10;;
15841;SDS011;8021;48.022;11.812;2023-05-10T08:36:13;0.10;;;0.10;;
15841;SDS011;8021;48.022;11.812;2023-05-10T08:38:45;0.10;;;0.10;;
15841;SDS011;8021;48.022;11.812;2023-05-10T08:41:15;0.10;;;0.10;;
15841;SDS011;8021;48.022;11.812;2023-05-10T08:43:43;0.08;;;0.08;;
15841;SDS011;8021;48.022;11.812;2023-05-10T08:46:12;0.00;;;0.00;;
15841;SDS011;8021;48.022;11.812;2023-05-10T08:48:42;0.10;;;0.10;;
15841;SDS011;8021;48.022;11.812;2023-05-10T08:51:11;0.10;;;0.10;;
15841;SDS011;8021;48.022;11.812;2023-05-10T08:53:41;0.10;;;0.10;;
15841;SDS011;8021;48.022;11.812;2023-05-10T08:56:09;0.10;;;0.10;;
15841;SDS011;8021;48.022;11.812;2023-05-10T08:58:36;0.00;;;0.00;;
15841;SDS011;8021;48.022;11.812;2023-05-10T09:01:04;0.00;;;0.00;;
15841;SDS011;8021;48.022;11.812;2023-05-10T09:03:32;0.03;;;0.03;;
15841;SDS011;8021;48.022;11.812;2023-05-10T09:05:59;0.00;;;0.00;;
15841;SDS011;8021;48.022;11.812;2023-05-10T09:08:27;0.00;;;0.00;;
15841;SDS011;8021;48.022;11.812;2023-05-10T09:10:56;0.10;;;0.10;;
15841;SDS011;8021;48.022;11.812;2023-05-10T09:13:24;0.10;;;0.10;;
15841;SDS011;8021;48.022;11.812;2023-05-10T09:15:52;0.10;;;0.10;;
15841;SDS011;8021;48.022;11.812;2023-05-10T09:18:20;0.10;;;0.10;;
15841;SDS011;8021;48.022;11.812;2023-05-10T09:20:48;0.10;;;0.10;;
15841;SDS011;8021;48.022;11.812;2023-05-10T09:23:15;0.10;;;0.10;;
15841;SDS011;8021;48.022;11.812;2023-05-10T09:25:43;0.10;;;0.10;;
15841;SDS011;8021;48.022;11.812;2023-05-10T09:28:11;0.10;;;0.10;;
15841;SDS011;8021;48.022;11.812;2023-05-10T09:30:39;0.10;;;0.10;;
15841;SDS011;8021;48.022;11.812;2023-05-10T09:33:06;0.10;;;0.10;;
15841;SDS011;8021;48.022;11.812;2023-05-10T09:35:34;0.20;;;0.20;;
15841;SDS011;8021;48.022;11.812;2023-05-10T09:38:02;0.20;;;0.10;;
15841;SDS011;8021;48.022;11.812;2023-05-10T09:40:30;0.20;;;0.20;;
15841;SDS011;8021;48.022;11.812;2023-05-10T09:42:58;0.20;;;0.20;;
15841;SDS011;8021;48.022;11.812;2023-05-10T09:45:29;0.20;;;0.20;;
15841;SDS011;8021;48.022;11.812;2023-05-10T09:47:57;0.20;;;0.10;;
15841;SDS011;8021;48.022;11.812;2023-05-10T09:50:25;0.30;;;0.20;;
15841;SDS011;8021;48.022;11.812;2023-05-10T09:52:53;0.20;;;0.20;;
15841;SDS011;8021;48.022;11.812;2023-05-10T09:55:22;0.20;;;0.20;;
15841;SDS011;8021;48.022;11.812;2023-05-10T09:57:58;0.20;;;0.20;;
15841;SDS011;8021;48.022;11.812;2023-05-10T10:00:28;0.20;;;0.13;;
15841;SDS011;8021;48.022;11.812;2023-05-10T10:02:56;0.15;;;0.10;;
15841;SDS011;8021;48.022;11.812;2023-05-10T10:05:27;0.10;;;0.10;;
15841;SDS011;8021;48.022;11.812;2023-05-10T10:07:55;0.20;;;0.20;;
15841;SDS011;8021;48.022;11.812;2023-05-10T10:10:23;0.20;;;0.10;;
15841;SDS011;8021;48.022;11.812;2023-05-10T10:12:51;0.20;;;0.20;;
15841;SDS011;8021;48.022;11.812;2023-05-10T10:15:18;0.20;;;0.20;;
15841;SDS011;8021;48.022;11.812;2023-05-10T10:17:48;0.20;;;0.20;;
15841;SDS011;8021;48.022;11.812;2023-05-10T10:20:16;0.20;;;0.20;;
15841;SDS011;8021;48.022;11.812;2023-05-10T10:22:45;0.20;;;0.15;;
15841;SDS011;8021;48.022;11.812;2023-05-10T10:25:13;0.20;;;0.20;;
15841;SDS011;8021;48.022;11.812;2023-05-10T10:27:43;0.20;;;0.20;;
15841;SDS011;8021;48.022;11.812;2023-05-10T10:30:15;0.20;;;0.20;;
15841;SDS011;8021;48.022;11.812;2023-05-10T10:35:43;0.20;;;0.17;;
15841;SDS011;8021;48.022;11.812;2023-05-10T10:38:12;0.20;;;0.10;;
15841;SDS011;8021;48.022;11.812;2023-05-10T10:40:40;0.20;;;0.20;;
15841;SDS011;8021;48.022;11.812;2023-05-10T10:43:21;0.20;;;0.20;;
15841;SDS011;8021;48.022;11.812;2023-05-10T10:48:32;0.15;;;0.15;;
15841;SDS011;8021;48.022;11.812;2023-05-10T10:51:00;0.17;;;0.17;;
15841;SDS011;8021;48.022;11.812;2023-05-10T10:53:28;0.10;;;0.10;;
15841;SDS011;8021;48.022;11.812;2023-05-10T10:56:02;0.10;;;0.10;;
15841;SDS011;8021;48.022;11.812;2023-05-10T10:58:34;0.20;;;0.20;;
15841;SDS011;8021;48.022;11.812;2023-05-10T11:01:12;0.20;;;0.10;;
15841;SDS011;8021;48.022;11.812;2023-05-10T11:03:39;0.20;;;0.20;;
15841;SDS011;8021;48.022;11.812;2023-05-10T11:06:08;0.13;;;0.10;;
15841;SDS011;8021;48.022;11.812;2023-05-10T11:08:41;0.20;;;0.15;;
15841;SDS011;8021;48.022;11.812;2023-05-10T11:11:09;0.20;;;0.20;;
15841;SDS011;8021;48.022;11.812;2023-05-10T11:13:39;0.10;;;0.10;;
15841;SDS011;8021;48.022;11.812;2023-05-10T11:16:17;0.25;;;0.20;;
15841;SDS011;8021;48.022;11.812;2023-05-10T11:18:56;0.20;;;0.20;;
15841;SDS011;8021;48.022;11.812;2023-05-10T11:21:25;0.20;;;0.20;;
15841;SDS011;8021;48.022;11.812;2023-05-10T11:23:53;0.20;;;0.20;;
15841;SDS011;8021;48.022;11.812;2023-05-10T11:26:23;0.20;;;0.20;;
15841;SDS011;8021;48.022;11.812;2023-05-10T11:28:52;0.20;;;0.20;;
15841;SDS011;8021;48.022;11.812;2023-05-10T11:31:22;0.20;;;0.20;;
15841;SDS011;8021;48.022;11.812;2023-05-10T11:33:50;0.30;;;0.20;;
15841;SDS011;8021;48.022;11.812;2023-05-10T11:36:18;0.20;;;0.20;;
15841;SDS011;8021;48.022;11.812;2023-05-10T11:38:48;0.20;;;0.20;;
15841;SDS011;8021;48.022;11.812;2023-05-10T11:41:17;0.20;;;0.20;;
15841;SDS011;8021;48.022;11.812;2023-05-10T11:43:45;0.20;;;0.20;;
15841;SDS011;8021;48.022;11.812;2023-05-10T11:46:13;0.20;;;0.20;;
15841;SDS011;8021;48.022;11.812;2023-05-10T11:48:42;0.20;;;0.20;;
15841;SDS011;8021;48.022;11.812;2023-05-10T11:51:10;0.20;;;0.20;;
15841;SDS011;8021;48.022;11.812;2023-05-10T11:53:37;0.30;;;0.20;;
15841;SDS011;8021;48.022;11.812;2023-05-10T11:56:07;0.30;;;0.20;;
15841;SDS011;8021;48.022;11.812;2023-05-10T11:58:35;0.30;;;0.20;;
15841;SDS011;8021;48.022;11.812;2023-05-10T12:01:03;0.20;;;0.20;;
15841;SDS011;8021;48.022;11.812;2023-05-10T12:03:31;0.30;;;0.30;;
15841;SDS011;8021;48.022;11.812;2023-05-10T12:05:59;0.20;;;0.20;;
15841;SDS011;8021;48.022;11.812;2023-05-10T12:08:27;0.30;;;0.20;;
15841;SDS011;8021;48.022;11.812;2023-05-10T12:11:03;0.28;;;0.20;;
15841;SDS011;8021;48.022;11.812;2023-05-10T12:13:34;0.20;;;0.20;;
15841;SDS011;8021;48.022;11.812;2023-05-10T12:16:12;0.30;;;0.20;;
15841;SDS011;8021;48.022;11.812;2023-05-10T12:18:39;0.30;;;0.22;;
15841;SDS011;8021;48.022;11.812;2023-05-10T12:21:07;0.20;;;0.20;;
15841;SDS011;8021;48.022;11.812;2023-05-10T12:23:36;0.20;;;0.20;;
15841;SDS011;8021;48.022;11.812;2023-05-10T12:26:04;0.30;;;0.20;;
15841;SDS011;8021;48.022;11.812;2023-05-10T12:28:33;0.20;;;0.20;;
15841;SDS011;8021;48.022;11.812;2023-05-10T12:31:01;0.30;;;0.30;;
15841;SDS011;8021;48.022;11.812;2023-05-10T12:33:35;0.20;;;0.20;;
15841;SDS011;8021;48.022;11.812;2023-05-10T12:36:02;0.30;;;0.30;;
15841;SDS011;8021;48.022;11.812;2023-05-10T12:38:32;0.20;;;0.20;;
15841;SDS011;8021;48.022;11.812;2023-05-10T12:41:00;0.20;;;0.17;;
15841;SDS011;8021;48.022;11.812;2023-05-10T12:43:28;0.20;;;0.20;;
15841;SDS011;8021;48.022;11.812;2023-05-10T12:45:57;0.30;;;0.30;;
15841;SDS011;8021;48.022;11.812;2023-05-10T12:48:25;0.30;;;0.20;;
15841;SDS011;8021;48.022;11.812;2023-05-10T12:50:54;0.30;;;0.20;;
15841;SDS011;8021;48.022;11.812;2023-05-10T12:53:22;0.30;;;0.20;;
15841;SDS011;8021;48.022;11.812;2023-05-10T12:55:49;0.30;;;0.30;;
15841;SDS011;8021;48.022;11.812;2023-05-10T12:58:17;0.30;;;0.30;;
15841;SDS011;8021;48.022;11.812;2023-05-10T13:01:02;0.28;;;0.20;;
15841;SDS011;8021;48.022;11.812;2023-05-10T13:03:30;0.20;;;0.20;;
15841;SDS011;8021;48.022;11.812;2023-05-10T13:05:57;0.20;;;0.20;;
15841;SDS011;8021;48.022;11.812;2023-05-10T13:08:25;0.30;;;0.22;;
15841;SDS011;8021;48.022;11.812;2023-05-10T13:10:53;0.25;;;0.20;;
15841;SDS011;8021;48.022;11.812;2023-05-10T13:13:20;0.30;;;0.20;;
15841;SDS011;8021;48.022;11.812;2023-05-10T13:15:48;0.20;;;0.20;;
15841;SDS011;8021;48.022;11.812;2023-05-10T13:18:17;0.20;;;0.20;;
15841;SDS011;8021;48.022;11.812;2023-05-10T13:20:44;0.30;;;0.20;;
15841;SDS011;8021;48.022;11.812;2023-05-10T13:23:12;0.20;;;0.20;;
15841;SDS011;8021;48.022;11.812;2023-05-10T13:25:39;0.20;;;0.20;;
15841;SDS011;8021;48.022;11.812;2023-05-10T13:28:06;0.30;;;0.20;;
15841;SDS011;8021;48.022;11.812;2023-05-10T13:30:34;0.20;;;0.20;;
15841;SDS011;8021;48.022;11.812;2023-05-10T13:33:02;0.30;;;0.25;;
15841;SDS011;8021;48.022;11.812;2023-05-10T13:35:30;0.30;;;0.20;;
15841;SDS011;8021;48.022;11.812;2023-05-10T13:37:58;0.30;;;0.20;;
15841;SDS011;8021;48.022;11.812;2023-05-10T13:40:25;0.30;;;0.20;;
15841;SDS011;8021;48.022;11.812;2023-05-10T13:42:54;0.20;;;0.20;;
15841;SDS011;8021;48.022;11.812;2023-05-10T13:45:21;0.30;;;0.20;;
15841;SDS011;8021;48.022;11.812;2023-05-10T13:47:49;0.20;;;0.20;;
15841;SDS011;8021;48.022;11.812;2023-05-10T13:50:16;0.20;;;0.20;;
15841;SDS011;8021;48.022;11.812;2023-05-10T13:52:45;0.20;;;0.20;;
15841;SDS011;8021;48.022;11.812;2023-05-10T13:55:13;0.20;;;0.20;;
15841;SDS011;8021;48.022;11.812;2023-05-10T13:57:41;0.20;;;0.20;;
15841;SDS011;8021;48.022;11.812;2023-05-10T14:00:09;0.20;;;0.20;;
15841;SDS011;8021;48.022;11.812;2023-05-10T14:02:37;0.20;;;0.20;;
15841;SDS011;8021;48.022;11.812;2023-05-10T14:05:05;0.20;;;0.20;;
15841;SDS011;8021;48.022;11.812;2023-05-10T14:07:32;0.20;;;0.20;;
15841;SDS011;8021;48.022;11.812;2023-05-10T14:10:02;0.20;;;0.20;;
15841;SDS011;8021;48.022;11.812;2023-05-10T14:12:29;0.30;;;0.20;;
15841;SDS011;8021;48.022;11.812;2023-05-10T14:14:57;0.20;;;0.20;;
15841;SDS011;8021;48.022;11.812;2023-05-10T14:17:24;0.30;;;0.20;;
15841;SDS011;8021;48.022;11.812;2023-05-10T14:19:52;0.20;;;0.20;;
15841;SDS011;8021;48.022;11.812;2023-05-10T14:22:20;0.20;;;0.10;;
15841;SDS011;8021;48.022;11.812;2023-05-10T14:24:48;0.20;;;0.20;;
15841;SDS011;8021;48.022;11.812;2023-05-10T14:27:17;0.20;;;0.20;;
15841;SDS011;8021;48.022;11.812;2023-05-10T14:29:45;0.20;;;0.20;;
15841;SDS011;8021;48.022;11.812;2023-05-10T14:32:13;0.20;;;0.20;;
15841;SDS011;8021;48.022;11.812;2023-05-10T14:34:40;0.20;;;0.20;;
15841;SDS011;8021;48.022;11.812;2023-05-10T14:37:09;0.30;;;0.20;;
15841;SDS011;8021;48.022;11.812;2023-05-10T14:39:37;0.20;;;0.10;;
15841;SDS011;8021;48.022;11.812;2023-05-10T14:42:06;0.30;;;0.20;;
15841;SDS011;8021;48.022;11.812;2023-05-10T14:44:35;0.20;;;0.20;;
15841;SDS011;8021;48.022;11.812;2023-05-10T14:47:03;0.20;;;0.20;;
15841;SDS011;8021;48.022;11.812;2023-05-10T14:49:31;0.20;;;0.20;;
15841;SDS011;8021;48.022;11.812;2023-05-10T14:51:58;0.20;;;0.20;;
15841;SDS011;8021;48.022;11.812;2023-05-10T14:54:26;0.20;;;0.20;;
15841;SDS011;8021;48.022;11.812;2023-05-10T14:56:53;0.20;;;0.20;;
15841;SDS011;8021;48.022;11.812;2023-05-10T14:59:21;0.20;;;0.20;;
15841;SDS011;8021;48.022;11.812;2023-05-10T15:01:50;0.20;;;0.20;;
15841;SDS011;8021;48.022;11.812;2023-05-10T15:04:18;0.30;;;0.30;;